createdAt,value
2022-10-17T00:21:04.866Z,14.73
2022-10-17T00:51:22.494Z,11.33
2022-10-17T01:21:38.942Z,12.30
2022-10-17T01:52:01.033Z,9.20
2022-10-17T02:22:22.197Z,33.17
2022-10-17T02:52:37.579Z,31.13
2022-10-17T03:22:57.532Z,30.67
2022-10-17T03:53:06.311Z,40.97
2022-10-17T04:23:15.152Z,34.73
2022-10-17T04:53:27.261Z,38.00
2022-10-17T05:23:38.634Z,37.33
2022-10-17T05:53:48.854Z,41.93
2022-10-17T06:24:10.388Z,47.50
2022-10-17T06:54:21.896Z,32.53
2022-10-17T07:55:13.309Z,21.85
2022-10-17T08:25:25.449Z,20.30
2022-10-17T08:55:44.597Z,4.68
2022-10-17T09:25:58.330Z,6.80
2022-10-17T09:56:11.430Z,3.85
2022-10-17T10:26:45.427Z,5.10
2022-10-17T10:56:57.378Z,4.35
2022-10-17T11:27:08.325Z,8.32
2022-10-17T11:57:43.936Z,6.30
2022-10-17T12:27:54.421Z,6.45
2022-10-17T12:58:05.650Z,4.40
2022-10-17T13:28:27.556Z,5.63
2022-10-17T13:58:43.697Z,6.65
2022-10-17T14:29:10.200Z,4.30
2022-10-17T14:59:42.007Z,3.97
2022-10-17T15:29:58.636Z,5.65
2022-10-17T16:00:16.406Z,8.10
2022-10-17T16:30:27.671Z,11.43
2022-10-17T17:00:36.298Z,51.28
2022-10-17T17:30:46.585Z,5.65
2022-10-17T18:00:57.028Z,10.65
2022-10-17T18:31:11.327Z,6.05
2022-10-17T19:01:22.513Z,12.10
2022-10-17T19:31:34.073Z,4.75
2022-10-17T20:01:42.883Z,9.77
2022-10-17T20:32:01.918Z,6.30
2022-10-17T21:02:13.564Z,2.65
2022-10-17T21:32:40.045Z,3.22
2022-10-17T22:02:50.729Z,6.47
2022-10-17T22:33:06.747Z,2.88
2022-10-17T23:03:15.251Z,2.47
2022-10-17T23:33:25.803Z,2.88
